sensor_id;sensor_type;location;lat;lon;timestamp;P1;durP1;ratioP1;P2;durP2;ratioP2
43226;SDS011;28839;52.404;9.808;2022-08-21T00:05:57;8.70;;;2.67;;
43226;SDS011;28839;52.404;9.808;2022-08-21T00:12:51;8.60;;;2.20;;
43226;SDS011;28839;52.404;9.808;2022-08-21T00:19:45;5.78;;;2.42;;
43226;SDS011;28839;52.404;9.808;2022-08-21T00:26:41;8.83;;;3.07;;
43226;SDS011;28839;52.404;9.808;2022-08-21T00:33:38;4.47;;;2.50;;
43226;SDS011;28839;52.404;9.808;2022-08-21T00:40:33;5.35;;;2.62;;
43226;SDS011;28839;52.404;9.808;2022-08-21T00:47:30;4.07;;;2.92;;
43226;SDS011;28839;52.404;9.808;2022-08-21T00:54:24;6.57;;;2.85;;
43226;SDS011;28839;52.404;9.808;2022-08-21T01:01:20;8.25;;;3.20;;
43226;SDS011;28839;52.404;9.808;2022-08-21T01:08:15;5.87;;;3.47;;
43226;SDS011;28839;52.404;9.808;2022-08-21T01:15:11;5.65;;;3.20;;
43226;SDS011;28839;52.404;9.808;2022-08-21T01:22:09;6.22;;;3.20;;
43226;SDS011;28839;52.404;9.808;2022-08-21T01:29:05;4.75;;;3.20;;
43226;SDS011;28839;52.404;9.808;2022-08-21T01:36:04;4.80;;;3.00;;
43226;SDS011;28839;52.404;9.808;2022-08-21T01:43:00;5.68;;;2.65;;
43226;SDS011;28839;52.404;9.808;2022-08-21T01:49:54;6.22;;;3.17;;
43226;SDS011;28839;52.404;9.808;2022-08-21T01:56:48;9.73;;;3.23;;
43226;SDS011;28839;52.404;9.808;2022-08-21T02:03:46;4.03;;;2.90;;
43226;SDS011;28839;52.404;9.808;2022-08-21T02:10:40;6.62;;;3.10;;
43226;SDS011;28839;52.404;9.808;2022-08-21T02:17:38;7.15;;;3.00;;
43226;SDS011;28839;52.404;9.808;2022-08-21T02:24:35;8.43;;;3.37;;
43226;SDS011;28839;52.404;9.808;2022-08-21T02:31:29;4.50;;;2.85;;
43226;SDS011;28839;52.404;9.808;2022-08-21T02:38:23;7.80;;;3.43;;
43226;SDS011;28839;52.404;9.808;2022-08-21T02:45:20;4.22;;;3.08;;
43226;SDS011;28839;52.404;9.808;2022-08-21T02:52:14;6.25;;;3.05;;
43226;SDS011;28839;52.404;9.808;2022-08-21T02:59:08;6.87;;;3.57;;
43226;SDS011;28839;52.404;9.808;2022-08-21T03:06:04;6.13;;;2.97;;
43226;SDS011;28839;52.404;9.808;2022-08-21T03:13:00;7.43;;;3.45;;
43226;SDS011;28839;52.404;9.808;2022-08-21T03:19:54;4.57;;;3.05;;
43226;SDS011;28839;52.404;9.808;2022-08-21T03:26:51;9.50;;;4.50;;
43226;SDS011;28839;52.404;9.808;2022-08-21T03:33:45;5.35;;;3.65;;
43226;SDS011;28839;52.404;9.808;2022-08-21T03:40:39;6.80;;;3.50;;
43226;SDS011;28839;52.404;9.808;2022-08-21T03:47:34;8.43;;;3.70;;
43226;SDS011;28839;52.404;9.808;2022-08-21T03:54:28;8.20;;;3.33;;
43226;SDS011;28839;52.404;9.808;2022-08-21T04:01:22;8.80;;;3.90;;
43226;SDS011;28839;52.404;9.808;2022-08-21T04:08:18;7.87;;;3.22;;
43226;SDS011;28839;52.404;9.808;2022-08-21T04:15:12;6.50;;;4.05;;
43226;SDS011;28839;52.404;9.808;2022-08-21T04:22:06;6.30;;;4.00;;
43226;SDS011;28839;52.404;9.808;2022-08-21T04:29:02;12.73;;;3.67;;
43226;SDS011;28839;52.404;9.808;2022-08-21T04:35:56;11.50;;;3.90;;
43226;SDS011;28839;52.404;9.808;2022-08-21T04:42:51;6.43;;;3.77;;
43226;SDS011;28839;52.404;9.808;2022-08-21T04:49:48;6.97;;;3.65;;
43226;SDS011;28839;52.404;9.808;2022-08-21T04:56:42;7.43;;;3.75;;
43226;SDS011;28839;52.404;9.808;2022-08-21T05:03:40;9.65;;;4.05;;
43226;SDS011;28839;52.404;9.808;2022-08-21T05:10:36;5.75;;;3.72;;
43226;SDS011;28839;52.404;9.808;2022-08-21T05:17:30;14.25;;;4.20;;
43226;SDS011;28839;52.404;9.808;2022-08-21T05:24:24;7.07;;;3.37;;
43226;SDS011;28839;52.404;9.808;2022-08-21T05:31:19;8.07;;;3.60;;
43226;SDS011;28839;52.404;9.808;2022-08-21T05:38:14;8.07;;;3.08;;
43226;SDS011;28839;52.404;9.808;2022-08-21T05:45:08;5.13;;;3.47;;
43226;SDS011;28839;52.404;9.808;2022-08-21T06:05:51;6.62;;;2.80;;
43226;SDS011;28839;52.404;9.808;2022-08-21T06:19:45;8.40;;;2.80;;
43226;SDS011;28839;52.404;9.808;2022-08-21T06:26:43;7.93;;;2.80;;
43226;SDS011;28839;52.404;9.808;2022-08-21T06:33:39;4.72;;;2.70;;
43226;SDS011;28839;52.404;9.808;2022-08-21T06:40:33;6.72;;;2.55;;
43226;SDS011;28839;52.404;9.808;2022-08-21T06:47:29;6.00;;;3.15;;
43226;SDS011;28839;52.404;9.808;2022-08-21T06:54:24;7.77;;;3.00;;
43226;SDS011;28839;52.404;9.808;2022-08-21T07:01:19;8.02;;;3.10;;
43226;SDS011;28839;52.404;9.808;2022-08-21T07:08:15;7.87;;;2.42;;
43226;SDS011;28839;52.404;9.808;2022-08-21T07:15:10;6.35;;;2.55;;
43226;SDS011;28839;52.404;9.808;2022-08-21T07:22:04;8.68;;;3.22;;
43226;SDS011;28839;52.404;9.808;2022-08-21T07:28:59;7.28;;;2.80;;
43226;SDS011;28839;52.404;9.808;2022-08-21T07:35:54;10.02;;;2.87;;
43226;SDS011;28839;52.404;9.808;2022-08-21T07:42:48;7.12;;;2.40;;
43226;SDS011;28839;52.404;9.808;2022-08-21T07:49:43;7.57;;;2.80;;
43226;SDS011;28839;52.404;9.808;2022-08-21T07:56:39;5.47;;;2.12;;
43226;SDS011;28839;52.404;9.808;2022-08-21T08:03:33;5.60;;;1.92;;
43226;SDS011;28839;52.404;9.808;2022-08-21T08:10:28;8.65;;;2.15;;
43226;SDS011;28839;52.404;9.808;2022-08-21T08:17:23;10.60;;;3.03;;
43226;SDS011;28839;52.404;9.808;2022-08-21T08:24:17;12.63;;;3.17;;
43226;SDS011;28839;52.404;9.808;2022-08-21T08:31:11;9.10;;;2.22;;
43226;SDS011;28839;52.404;9.808;2022-08-21T08:38:07;5.80;;;2.10;;
43226;SDS011;28839;52.404;9.808;2022-08-21T08:45:03;8.50;;;1.90;;
43226;SDS011;28839;52.404;9.808;2022-08-21T08:51:59;10.80;;;2.30;;
43226;SDS011;28839;52.404;9.808;2022-08-21T08:58:57;9.98;;;1.90;;
43226;SDS011;28839;52.404;9.808;2022-08-21T09:05:55;7.18;;;2.62;;
43226;SDS011;28839;52.404;9.808;2022-08-21T09:12:59;4.30;;;1.70;;
43226;SDS011;28839;52.404;9.808;2022-08-21T09:20:07;7.53;;;1.83;;
43226;SDS011;28839;52.404;9.808;2022-08-21T09:27:04;5.60;;;2.25;;
43226;SDS011;28839;52.404;9.808;2022-08-21T09:34:00;8.73;;;2.33;;
43226;SDS011;28839;52.404;9.808;2022-08-21T09:40:59;5.75;;;2.10;;
43226;SDS011;28839;52.404;9.808;2022-08-21T09:47:54;6.57;;;2.30;;
43226;SDS011;28839;52.404;9.808;2022-08-21T09:54:49;3.33;;;2.08;;
43226;SDS011;28839;52.404;9.808;2022-08-21T10:01:47;7.65;;;2.80;;
43226;SDS011;28839;52.404;9.808;2022-08-21T10:08:42;6.95;;;2.47;;
43226;SDS011;28839;52.404;9.808;2022-08-21T10:15:39;6.28;;;2.95;;
43226;SDS011;28839;52.404;9.808;2022-08-21T10:22:42;3.30;;;1.85;;
43226;SDS011;28839;52.404;9.808;2022-08-21T10:29:46;5.37;;;1.90;;
43226;SDS011;28839;52.404;9.808;2022-08-21T10:36:46;9.70;;;2.10;;
43226;SDS011;28839;52.404;9.808;2022-08-21T10:43:50;6.90;;;2.12;;
43226;SDS011;28839;52.404;9.808;2022-08-21T10:50:50;5.10;;;2.20;;
43226;SDS011;28839;52.404;9.808;2022-08-21T10:57:50;8.40;;;2.37;;
43226;SDS011;28839;52.404;9.808;2022-08-21T11:04:50;10.68;;;2.65;;
43226;SDS011;28839;52.404;9.808;2022-08-21T11:18:47;6.10;;;1.80;;
43226;SDS011;28839;52.404;9.808;2022-08-21T11:25:49;5.95;;;1.92;;
43226;SDS011;28839;52.404;9.808;2022-08-21T11:32:49;11.52;;;2.40;;
43226;SDS011;28839;52.404;9.808;2022-08-21T11:40:03;6.22;;;2.03;;
43226;SDS011;28839;52.404;9.808;2022-08-21T11:47:05;5.57;;;1.77;;
43226;SDS011;28839;52.404;9.808;2022-08-21T11:54:05;4.07;;;1.67;;
43226;SDS011;28839;52.404;9.808;2022-08-21T12:01:08;3.83;;;1.70;;
43226;SDS011;28839;52.404;9.808;2022-08-21T12:08:08;5.95;;;1.90;;
43226;SDS011;28839;52.404;9.808;2022-08-21T12:15:12;4.72;;;2.05;;
43226;SDS011;28839;52.404;9.808;2022-08-21T12:22:09;8.85;;;2.60;;
43226;SDS011;28839;52.404;9.808;2022-08-21T12:29:10;4.45;;;1.95;;
43226;SDS011;28839;52.404;9.808;2022-08-21T12:36:07;4.62;;;1.73;;
43226;SDS011;28839;52.404;9.808;2022-08-21T12:43:04;5.62;;;1.80;;
43226;SDS011;28839;52.404;9.808;2022-08-21T12:50:08;4.12;;;1.40;;
43226;SDS011;28839;52.404;9.808;2022-08-21T12:57:05;4.43;;;1.60;;
43226;SDS011;28839;52.404;9.808;2022-08-21T13:04:02;7.60;;;1.70;;
43226;SDS011;28839;52.404;9.808;2022-08-21T13:11:01;4.32;;;1.80;;
43226;SDS011;28839;52.404;9.808;2022-08-21T13:17:57;5.18;;;1.87;;
43226;SDS011;28839;52.404;9.808;2022-08-21T13:24:54;6.15;;;1.83;;
43226;SDS011;28839;52.404;9.808;2022-08-21T13:31:51;4.28;;;1.80;;
43226;SDS011;28839;52.404;9.808;2022-08-21T13:38:46;4.75;;;2.15;;
43226;SDS011;28839;52.404;9.808;2022-08-21T13:45:42;4.85;;;1.73;;
43226;SDS011;28839;52.404;9.808;2022-08-21T13:52:44;3.55;;;1.87;;
43226;SDS011;28839;52.404;9.808;2022-08-21T13:59:43;2.53;;;1.55;;
43226;SDS011;28839;52.404;9.808;2022-08-21T14:06:37;2.65;;;1.75;;
43226;SDS011;28839;52.404;9.808;2022-08-21T14:13:37;4.93;;;1.95;;
43226;SDS011;28839;52.404;9.808;2022-08-21T14:20:34;5.37;;;1.90;;
43226;SDS011;28839;52.404;9.808;2022-08-21T14:27:30;5.45;;;1.52;;
43226;SDS011;28839;52.404;9.808;2022-08-21T14:34:27;5.78;;;2.10;;
43226;SDS011;28839;52.404;9.808;2022-08-21T14:41:23;5.10;;;1.70;;
43226;SDS011;28839;52.404;9.808;2022-08-21T14:48:19;2.00;;;1.80;;
43226;SDS011;28839;52.404;9.808;2022-08-21T14:55:15;3.72;;;1.95;;
43226;SDS011;28839;52.404;9.808;2022-08-21T15:02:11;6.47;;;1.80;;
43226;SDS011;28839;52.404;9.808;2022-08-21T15:09:05;4.53;;;2.03;;
43226;SDS011;28839;52.404;9.808;2022-08-21T15:16:00;3.65;;;2.22;;
43226;SDS011;28839;52.404;9.808;2022-08-21T15:22:54;4.57;;;2.03;;
43226;SDS011;28839;52.404;9.808;2022-08-21T15:29:50;3.10;;;1.80;;
43226;SDS011;28839;52.404;9.808;2022-08-21T15:36:47;5.60;;;2.80;;
43226;SDS011;28839;52.404;9.808;2022-08-21T15:43:42;6.45;;;2.85;;
43226;SDS011;28839;52.404;9.808;2022-08-21T15:50:38;5.78;;;2.10;;
43226;SDS011;28839;52.404;9.808;2022-08-21T15:57:36;5.93;;;2.12;;
43226;SDS011;28839;52.404;9.808;2022-08-21T16:04:35;6.00;;;2.40;;
43226;SDS011;28839;52.404;9.808;2022-08-21T16:11:29;8.45;;;2.30;;
43226;SDS011;28839;52.404;9.808;2022-08-21T16:18:24;5.82;;;2.30;;
43226;SDS011;28839;52.404;9.808;2022-08-21T16:25:19;8.57;;;3.05;;
43226;SDS011;28839;52.404;9.808;2022-08-21T16:32:14;5.78;;;2.78;;
43226;SDS011;28839;52.404;9.808;2022-08-21T16:39:10;6.72;;;3.03;;
43226;SDS011;28839;52.404;9.808;2022-08-21T16:46:04;5.35;;;3.10;;
43226;SDS011;28839;52.404;9.808;2022-08-21T16:52:59;8.15;;;2.72;;
43226;SDS011;28839;52.404;9.808;2022-08-21T16:59:55;9.70;;;7.22;;
43226;SDS011;28839;52.404;9.808;2022-08-21T17:06:49;6.22;;;2.40;;
43226;SDS011;28839;52.404;9.808;2022-08-21T17:13:44;8.05;;;3.22;;
43226;SDS011;28839;52.404;9.808;2022-08-21T17:20:39;7.10;;;3.42;;
43226;SDS011;28839;52.404;9.808;2022-08-21T17:27:34;5.85;;;3.65;;
43226;SDS011;28839;52.404;9.808;2022-08-21T17:34:28;8.15;;;3.05;;
43226;SDS011;28839;52.404;9.808;2022-08-21T17:41:23;5.37;;;3.45;;
43226;SDS011;28839;52.404;9.808;2022-08-21T17:48:18;9.52;;;6.50;;
43226;SDS011;28839;52.404;9.808;2022-08-21T17:55:12;7.75;;;3.58;;
43226;SDS011;28839;52.404;9.808;2022-08-21T18:02:09;7.75;;;3.78;;
43226;SDS011;28839;52.404;9.808;2022-08-21T18:09:05;6.05;;;3.70;;
43226;SDS011;28839;52.404;9.808;2022-08-21T18:16:00;6.72;;;3.50;;
43226;SDS011;28839;52.404;9.808;2022-08-21T18:22:56;5.85;;;3.50;;
43226;SDS011;28839;52.404;9.808;2022-08-21T18:29:51;6.05;;;3.92;;
43226;SDS011;28839;52.404;9.808;2022-08-21T18:36:48;4.55;;;3.67;;
43226;SDS011;28839;52.404;9.808;2022-08-21T18:43:44;4.53;;;3.22;;
43226;SDS011;28839;52.404;9.808;2022-08-21T18:50:40;9.23;;;4.28;;
43226;SDS011;28839;52.404;9.808;2022-08-21T18:57:35;14.27;;;7.90;;
43226;SDS011;28839;52.404;9.808;2022-08-21T19:04:32;15.60;;;8.93;;
43226;SDS011;28839;52.404;9.808;2022-08-21T19:11:26;13.45;;;6.53;;
43226;SDS011;28839;52.404;9.808;2022-08-21T19:18:21;26.67;;;18.45;;
43226;SDS011;28839;52.404;9.808;2022-08-21T19:25:19;15.55;;;11.55;;
43226;SDS011;28839;52.404;9.808;2022-08-21T19:32:13;17.48;;;10.25;;
43226;SDS011;28839;52.404;9.808;2022-08-21T19:39:07;20.85;;;15.15;;
43226;SDS011;28839;52.404;9.808;2022-08-21T19:46:03;23.92;;;14.35;;
43226;SDS011;28839;52.404;9.808;2022-08-21T19:52:57;14.98;;;8.63;;
43226;SDS011;28839;52.404;9.808;2022-08-21T19:59:51;10.43;;;6.93;;
43226;SDS011;28839;52.404;9.808;2022-08-21T20:06:47;14.30;;;10.35;;
43226;SDS011;28839;52.404;9.808;2022-08-21T20:13:41;9.10;;;6.80;;
43226;SDS011;28839;52.404;9.808;2022-08-21T20:20:35;15.10;;;6.55;;
43226;SDS011;28839;52.404;9.808;2022-08-21T20:27:31;11.82;;;5.75;;
43226;SDS011;28839;52.404;9.808;2022-08-21T20:34:24;12.50;;;7.60;;
43226;SDS011;28839;52.404;9.808;2022-08-21T20:41:19;7.30;;;6.22;;
43226;SDS011;28839;52.404;9.808;2022-08-21T20:48:17;9.73;;;7.70;;
43226;SDS011;28839;52.404;9.808;2022-08-21T20:55:18;13.30;;;7.95;;
43226;SDS011;28839;52.404;9.808;2022-08-21T21:02:24;10.48;;;7.20;;
43226;SDS011;28839;52.404;9.808;2022-08-21T21:09:30;15.13;;;8.50;;
43226;SDS011;28839;52.404;9.808;2022-08-21T21:16:29;12.93;;;8.85;;
43226;SDS011;28839;52.404;9.808;2022-08-21T21:23:29;22.95;;;13.50;;
43226;SDS011;28839;52.404;9.808;2022-08-21T21:30:31;10.80;;;8.20;;
43226;SDS011;28839;52.404;9.808;2022-08-21T21:37:28;17.05;;;12.57;;
43226;SDS011;28839;52.404;9.808;2022-08-21T21:44:32;12.55;;;8.88;;
43226;SDS011;28839;52.404;9.808;2022-08-21T21:51:43;8.80;;;7.03;;
43226;SDS011;28839;52.404;9.808;2022-08-21T21:58:49;10.52;;;6.62;;
43226;SDS011;28839;52.404;9.808;2022-08-21T22:05:55;11.52;;;7.00;;
43226;SDS011;28839;52.404;9.808;2022-08-21T22:12:55;7.65;;;5.75;;
43226;SDS011;28839;52.404;9.808;2022-08-21T22:19:58;9.52;;;5.32;;
43226;SDS011;28839;52.404;9.808;2022-08-21T22:26:57;7.37;;;4.37;;
43226;SDS011;28839;52.404;9.808;2022-08-21T22:34:04;7.80;;;4.00;;
43226;SDS011;28839;52.404;9.808;2022-08-21T22:41:09;5.47;;;4.50;;
43226;SDS011;28839;52.404;9.808;2022-08-21T22:48:07;7.50;;;4.57;;
43226;SDS011;28839;52.404;9.808;2022-08-21T22:55:14;11.02;;;5.82;;
43226;SDS011;28839;52.404;9.808;2022-08-21T23:02:18;10.45;;;4.95;;
43226;SDS011;28839;52.404;9.808;2022-08-21T23:09:20;10.55;;;5.12;;
43226;SDS011;28839;52.404;9.808;2022-08-21T23:16:29;6.55;;;5.32;;
43226;SDS011;28839;52.404;9.808;2022-08-21T23:23:30;9.18;;;6.20;;
43226;SDS011;28839;52.404;9.808;2022-08-21T23:30:36;6.85;;;5.07;;
43226;SDS011;28839;52.404;9.808;2022-08-21T23:37:38;8.88;;;5.55;;
43226;SDS011;28839;52.404;9.808;2022-08-21T23:44:43;10.57;;;5.65;;
43226;SDS011;28839;52.404;9.808;2022-08-21T23:51:49;9.55;;;5.53;;
43226;SDS011;28839;52.404;9.808;2022-08-21T23:58:54;6.37;;;5.60;;
